sensor_id;sensor_type;location;lat;lon;timestamp;P1;durP1;ratioP1;P2;durP2;ratioP2
67564;SDS011;54393;53.556;49.216;2023-05-07T00:01:22;1.85;;;1.75;;
67564;SDS011;54393;53.556;49.216;2023-05-07T00:03:48;1.37;;;1.37;;
67564;SDS011;54393;53.556;49.216;2023-05-07T00:06:15;1.58;;;1.48;;
67564;SDS011;54393;53.556;49.216;2023-05-07T00:08:41;1.42;;;1.33;;
67564;SDS011;54393;53.556;49.216;2023-05-07T00:11:08;1.33;;;1.23;;
67564;SDS011;54393;53.556;49.216;2023-05-07T00:13:34;4.22;;;1.37;;
67564;SDS011;54393;53.556;49.216;2023-05-07T00:16:01;1.35;;;1.33;;
67564;SDS011;54393;53.556;49.216;2023-05-07T00:18:28;1.55;;;1.45;;
67564;SDS011;54393;53.556;49.216;2023-05-07T00:20:55;1.60;;;1.50;;
67564;SDS011;54393;53.556;49.216;2023-05-07T00:23:21;1.60;;;1.50;;
67564;SDS011;54393;53.556;49.216;2023-05-07T00:25:48;1.50;;;1.40;;
67564;SDS011;54393;53.556;49.216;2023-05-07T00:28:14;2.12;;;1.67;;
67564;SDS011;54393;53.556;49.216;2023-05-07T00:30:41;1.33;;;1.27;;
67564;SDS011;54393;53.556;49.216;2023-05-07T00:33:07;1.20;;;1.15;;
67564;SDS011;54393;53.556;49.216;2023-05-07T00:35:34;1.77;;;1.40;;
67564;SDS011;54393;53.556;49.216;2023-05-07T00:38:00;1.70;;;1.35;;
67564;SDS011;54393;53.556;49.216;2023-05-07T00:40:27;1.40;;;1.30;;
67564;SDS011;54393;53.556;49.216;2023-05-07T00:42:53;1.37;;;1.30;;
67564;SDS011;54393;53.556;49.216;2023-05-07T00:45:24;1.37;;;1.30;;
67564;SDS011;54393;53.556;49.216;2023-05-07T00:47:57;1.40;;;1.30;;
67564;SDS011;54393;53.556;49.216;2023-05-07T00:50:25;1.77;;;1.67;;
67564;SDS011;54393;53.556;49.216;2023-05-07T00:52:53;1.67;;;1.58;;
67564;SDS011;54393;53.556;49.216;2023-05-07T00:55:20;1.45;;;1.35;;
67564;SDS011;54393;53.556;49.216;2023-05-07T00:57:47;1.75;;;1.65;;
67564;SDS011;54393;53.556;49.216;2023-05-07T01:00:13;1.20;;;1.20;;
67564;SDS011;54393;53.556;49.216;2023-05-07T01:02:40;1.23;;;1.23;;
67564;SDS011;54393;53.556;49.216;2023-05-07T01:05:08;1.60;;;1.50;;
67564;SDS011;54393;53.556;49.216;2023-05-07T01:07:39;1.70;;;1.60;;
67564;SDS011;54393;53.556;49.216;2023-05-07T01:10:06;2.00;;;1.80;;
67564;SDS011;54393;53.556;49.216;2023-05-07T01:12:34;1.30;;;1.30;;
67564;SDS011;54393;53.556;49.216;2023-05-07T01:15:01;1.62;;;1.52;;
67564;SDS011;54393;53.556;49.216;2023-05-07T01:17:28;1.20;;;1.20;;
67564;SDS011;54393;53.556;49.216;2023-05-07T01:19:54;1.73;;;1.40;;
67564;SDS011;54393;53.556;49.216;2023-05-07T01:25:02;1.37;;;1.27;;
67564;SDS011;54393;53.556;49.216;2023-05-07T01:27:29;1.60;;;1.50;;
67564;SDS011;54393;53.556;49.216;2023-05-07T01:29:56;1.10;;;1.10;;
67564;SDS011;54393;53.556;49.216;2023-05-07T01:32:44;1.52;;;1.42;;
67564;SDS011;54393;53.556;49.216;2023-05-07T01:35:12;1.50;;;1.40;;
67564;SDS011;54393;53.556;49.216;2023-05-07T01:37:42;1.48;;;1.37;;
67564;SDS011;54393;53.556;49.216;2023-05-07T01:40:09;1.60;;;1.50;;
67564;SDS011;54393;53.556;49.216;2023-05-07T01:42:35;1.58;;;1.30;;
67564;SDS011;54393;53.556;49.216;2023-05-07T01:45:02;1.60;;;1.50;;
67564;SDS011;54393;53.556;49.216;2023-05-07T01:47:29;1.17;;;1.08;;
67564;SDS011;54393;53.556;49.216;2023-05-07T01:49:56;1.30;;;1.20;;
67564;SDS011;54393;53.556;49.216;2023-05-07T01:52:23;1.37;;;1.27;;
67564;SDS011;54393;53.556;49.216;2023-05-07T01:54:50;1.60;;;1.50;;
67564;SDS011;54393;53.556;49.216;2023-05-07T01:57:16;2.83;;;1.40;;
67564;SDS011;54393;53.556;49.216;2023-05-07T01:59:43;1.40;;;1.30;;
67564;SDS011;54393;53.556;49.216;2023-05-07T02:02:09;1.33;;;1.30;;
67564;SDS011;54393;53.556;49.216;2023-05-07T02:04:36;1.35;;;1.30;;
67564;SDS011;54393;53.556;49.216;2023-05-07T02:07:02;1.42;;;1.33;;
67564;SDS011;54393;53.556;49.216;2023-05-07T02:09:29;1.27;;;1.27;;
67564;SDS011;54393;53.556;49.216;2023-05-07T02:11:55;1.12;;;1.10;;
67564;SDS011;54393;53.556;49.216;2023-05-07T02:14:22;1.45;;;1.35;;
67564;SDS011;54393;53.556;49.216;2023-05-07T02:16:48;2.08;;;1.55;;
67564;SDS011;54393;53.556;49.216;2023-05-07T02:19:15;1.42;;;1.33;;
67564;SDS011;54393;53.556;49.216;2023-05-07T02:21:41;1.48;;;1.37;;
67564;SDS011;54393;53.556;49.216;2023-05-07T02:24:08;1.60;;;1.50;;
67564;SDS011;54393;53.556;49.216;2023-05-07T02:26:34;1.35;;;1.25;;
67564;SDS011;54393;53.556;49.216;2023-05-07T02:29:01;1.33;;;1.20;;
67564;SDS011;54393;53.556;49.216;2023-05-07T02:31:27;1.35;;;1.25;;
67564;SDS011;54393;53.556;49.216;2023-05-07T02:33:54;1.30;;;1.20;;
67564;SDS011;54393;53.556;49.216;2023-05-07T02:36:20;1.30;;;1.30;;
67564;SDS011;54393;53.556;49.216;2023-05-07T02:38:47;1.30;;;1.20;;
67564;SDS011;54393;53.556;49.216;2023-05-07T02:41:13;2.87;;;1.60;;
67564;SDS011;54393;53.556;49.216;2023-05-07T02:43:40;1.65;;;1.55;;
67564;SDS011;54393;53.556;49.216;2023-05-07T02:46:07;1.75;;;1.48;;
67564;SDS011;54393;53.556;49.216;2023-05-07T02:48:34;1.42;;;1.20;;
67564;SDS011;54393;53.556;49.216;2023-05-07T02:51:00;1.40;;;1.30;;
67564;SDS011;54393;53.556;49.216;2023-05-07T02:53:27;1.45;;;1.30;;
67564;SDS011;54393;53.556;49.216;2023-05-07T02:55:58;1.02;;;1.02;;
67564;SDS011;54393;53.556;49.216;2023-05-07T02:58:25;1.55;;;1.40;;
67564;SDS011;54393;53.556;49.216;2023-05-07T03:00:52;1.92;;;1.42;;
67564;SDS011;54393;53.556;49.216;2023-05-07T03:03:21;1.42;;;1.33;;
67564;SDS011;54393;53.556;49.216;2023-05-07T03:05:48;1.50;;;1.40;;
67564;SDS011;54393;53.556;49.216;2023-05-07T03:08:14;1.50;;;1.20;;
67564;SDS011;54393;53.556;49.216;2023-05-07T03:10:42;1.40;;;1.30;;
67564;SDS011;54393;53.556;49.216;2023-05-07T03:13:08;1.40;;;1.30;;
67564;SDS011;54393;53.556;49.216;2023-05-07T03:15:35;2.92;;;1.20;;
67564;SDS011;54393;53.556;49.216;2023-05-07T03:18:01;2.80;;;1.60;;
67564;SDS011;54393;53.556;49.216;2023-05-07T03:20:28;1.65;;;1.23;;
67564;SDS011;54393;53.556;49.216;2023-05-07T03:22:55;2.30;;;1.45;;
67564;SDS011;54393;53.556;49.216;2023-05-07T03:25:21;1.20;;;1.10;;
67564;SDS011;54393;53.556;49.216;2023-05-07T03:27:48;1.48;;;1.37;;
67564;SDS011;54393;53.556;49.216;2023-05-07T03:30:14;1.35;;;1.23;;
67564;SDS011;54393;53.556;49.216;2023-05-07T03:32:41;1.05;;;1.05;;
67564;SDS011;54393;53.556;49.216;2023-05-07T03:35:07;1.20;;;1.05;;
67564;SDS011;54393;53.556;49.216;2023-05-07T03:37:34;1.33;;;1.23;;
67564;SDS011;54393;53.556;49.216;2023-05-07T03:40:00;1.20;;;1.20;;
67564;SDS011;54393;53.556;49.216;2023-05-07T03:42:28;0.95;;;0.90;;
67564;SDS011;54393;53.556;49.216;2023-05-07T03:44:54;0.93;;;0.93;;
67564;SDS011;54393;53.556;49.216;2023-05-07T03:47:21;0.98;;;0.98;;
67564;SDS011;54393;53.556;49.216;2023-05-07T03:49:47;1.08;;;1.08;;
67564;SDS011;54393;53.556;49.216;2023-05-07T03:52:15;1.20;;;1.10;;
67564;SDS011;54393;53.556;49.216;2023-05-07T03:54:48;1.05;;;1.05;;
67564;SDS011;54393;53.556;49.216;2023-05-07T03:57:14;1.70;;;1.00;;
67564;SDS011;54393;53.556;49.216;2023-05-07T03:59:41;1.17;;;1.10;;
67564;SDS011;54393;53.556;49.216;2023-05-07T04:02:07;1.85;;;1.23;;
67564;SDS011;54393;53.556;49.216;2023-05-07T04:04:34;1.10;;;1.10;;
67564;SDS011;54393;53.556;49.216;2023-05-07T04:07:00;1.15;;;1.15;;
67564;SDS011;54393;53.556;49.216;2023-05-07T04:09:27;2.15;;;1.20;;
67564;SDS011;54393;53.556;49.216;2023-05-07T04:11:53;1.25;;;1.23;;
67564;SDS011;54393;53.556;49.216;2023-05-07T04:14:20;1.33;;;1.23;;
67564;SDS011;54393;53.556;49.216;2023-05-07T04:16:46;1.27;;;1.17;;
67564;SDS011;54393;53.556;49.216;2023-05-07T04:19:12;1.33;;;1.23;;
67564;SDS011;54393;53.556;49.216;2023-05-07T04:21:39;1.10;;;1.10;;
67564;SDS011;54393;53.556;49.216;2023-05-07T04:24:06;1.20;;;1.20;;
67564;SDS011;54393;53.556;49.216;2023-05-07T04:26:32;1.00;;;1.00;;
67564;SDS011;54393;53.556;49.216;2023-05-07T04:28:59;1.08;;;1.08;;
67564;SDS011;54393;53.556;49.216;2023-05-07T04:31:25;0.90;;;0.90;;
67564;SDS011;54393;53.556;49.216;2023-05-07T04:33:52;1.17;;;1.00;;
67564;SDS011;54393;53.556;49.216;2023-05-07T04:36:18;1.35;;;1.15;;
67564;SDS011;54393;53.556;49.216;2023-05-07T04:38:45;0.90;;;0.90;;
67564;SDS011;54393;53.556;49.216;2023-05-07T04:41:12;1.27;;;1.05;;
67564;SDS011;54393;53.556;49.216;2023-05-07T04:43:39;0.95;;;0.95;;
67564;SDS011;54393;53.556;49.216;2023-05-07T04:46:06;1.08;;;1.08;;
67564;SDS011;54393;53.556;49.216;2023-05-07T04:48:33;1.90;;;1.35;;
67564;SDS011;54393;53.556;49.216;2023-05-07T04:50:59;0.80;;;0.80;;
67564;SDS011;54393;53.556;49.216;2023-05-07T04:53:26;1.70;;;1.27;;
67564;SDS011;54393;53.556;49.216;2023-05-07T04:55:56;0.90;;;0.90;;
67564;SDS011;54393;53.556;49.216;2023-05-07T04:58:23;2.05;;;0.85;;
67564;SDS011;54393;53.556;49.216;2023-05-07T05:00:49;1.05;;;0.98;;
67564;SDS011;54393;53.556;49.216;2023-05-07T05:03:16;1.50;;;0.73;;
67564;SDS011;54393;53.556;49.216;2023-05-07T05:05:42;1.75;;;1.12;;
67564;SDS011;54393;53.556;49.216;2023-05-07T05:08:09;1.67;;;1.20;;
67564;SDS011;54393;53.556;49.216;2023-05-07T05:10:35;1.40;;;1.27;;
67564;SDS011;54393;53.556;49.216;2023-05-07T05:13:02;0.95;;;0.95;;
67564;SDS011;54393;53.556;49.216;2023-05-07T05:15:28;0.80;;;0.80;;
67564;SDS011;54393;53.556;49.216;2023-05-07T05:17:55;1.90;;;0.80;;
67564;SDS011;54393;53.556;49.216;2023-05-07T05:20:21;1.30;;;1.00;;
67564;SDS011;54393;53.556;49.216;2023-05-07T05:22:48;1.00;;;0.90;;
67564;SDS011;54393;53.556;49.216;2023-05-07T05:25:14;0.80;;;0.80;;
67564;SDS011;54393;53.556;49.216;2023-05-07T05:27:41;0.90;;;0.90;;
67564;SDS011;54393;53.556;49.216;2023-05-07T05:30:07;0.85;;;0.85;;
67564;SDS011;54393;53.556;49.216;2023-05-07T05:32:34;1.42;;;0.95;;
67564;SDS011;54393;53.556;49.216;2023-05-07T05:35:01;1.10;;;1.10;;
67564;SDS011;54393;53.556;49.216;2023-05-07T05:37:27;0.88;;;0.88;;
67564;SDS011;54393;53.556;49.216;2023-05-07T05:39:55;0.88;;;0.88;;
67564;SDS011;54393;53.556;49.216;2023-05-07T05:42:21;0.80;;;0.80;;
67564;SDS011;54393;53.556;49.216;2023-05-07T05:44:48;0.93;;;0.80;;
67564;SDS011;54393;53.556;49.216;2023-05-07T05:47:15;1.40;;;1.00;;
67564;SDS011;54393;53.556;49.216;2023-05-07T05:49:41;0.80;;;0.80;;
67564;SDS011;54393;53.556;49.216;2023-05-07T05:52:09;0.88;;;0.88;;
67564;SDS011;54393;53.556;49.216;2023-05-07T05:54:37;0.90;;;0.90;;
67564;SDS011;54393;53.556;49.216;2023-05-07T05:57:04;0.90;;;0.90;;
67564;SDS011;54393;53.556;49.216;2023-05-07T05:59:31;1.00;;;0.90;;
67564;SDS011;54393;53.556;49.216;2023-05-07T06:01:57;0.80;;;0.80;;
67564;SDS011;54393;53.556;49.216;2023-05-07T06:04:24;0.80;;;0.80;;
67564;SDS011;54393;53.556;49.216;2023-05-07T06:06:50;1.20;;;1.10;;
67564;SDS011;54393;53.556;49.216;2023-05-07T06:09:17;0.80;;;0.80;;
67564;SDS011;54393;53.556;49.216;2023-05-07T06:11:43;0.90;;;0.90;;
67564;SDS011;54393;53.556;49.216;2023-05-07T06:14:10;1.08;;;0.95;;
67564;SDS011;54393;53.556;49.216;2023-05-07T06:16:36;0.73;;;0.73;;
67564;SDS011;54393;53.556;49.216;2023-05-07T06:19:03;0.85;;;0.85;;
67564;SDS011;54393;53.556;49.216;2023-05-07T06:21:29;1.65;;;0.95;;
67564;SDS011;54393;53.556;49.216;2023-05-07T06:23:56;1.62;;;1.00;;
67564;SDS011;54393;53.556;49.216;2023-05-07T06:26:23;0.82;;;0.82;;
67564;SDS011;54393;53.556;49.216;2023-05-07T06:28:50;0.90;;;0.90;;
67564;SDS011;54393;53.556;49.216;2023-05-07T06:31:19;0.75;;;0.75;;
67564;SDS011;54393;53.556;49.216;2023-05-07T06:33:46;0.77;;;0.77;;
67564;SDS011;54393;53.556;49.216;2023-05-07T06:36:13;2.58;;;0.88;;
67564;SDS011;54393;53.556;49.216;2023-05-07T06:38:39;0.90;;;0.90;;
67564;SDS011;54393;53.556;49.216;2023-05-07T06:41:06;0.80;;;0.80;;
67564;SDS011;54393;53.556;49.216;2023-05-07T06:43:33;1.00;;;1.00;;
67564;SDS011;54393;53.556;49.216;2023-05-07T06:45:59;0.82;;;0.80;;
67564;SDS011;54393;53.556;49.216;2023-05-07T06:48:26;0.60;;;0.60;;
67564;SDS011;54393;53.556;49.216;2023-05-07T06:50:53;1.33;;;0.82;;
67564;SDS011;54393;53.556;49.216;2023-05-07T06:53:20;0.70;;;0.70;;
67564;SDS011;54393;53.556;49.216;2023-05-07T06:55:47;1.10;;;1.00;;
67564;SDS011;54393;53.556;49.216;2023-05-07T06:58:13;0.80;;;0.80;;
67564;SDS011;54393;53.556;49.216;2023-05-07T07:00:40;0.62;;;0.62;;
67564;SDS011;54393;53.556;49.216;2023-05-07T07:03:06;1.10;;;0.90;;
67564;SDS011;54393;53.556;49.216;2023-05-07T07:05:33;0.70;;;0.70;;
67564;SDS011;54393;53.556;49.216;2023-05-07T07:07:59;0.88;;;0.88;;
67564;SDS011;54393;53.556;49.216;2023-05-07T07:10:26;0.70;;;0.70;;
67564;SDS011;54393;53.556;49.216;2023-05-07T07:12:52;0.90;;;0.90;;
67564;SDS011;54393;53.556;49.216;2023-05-07T07:15:19;0.60;;;0.60;;
67564;SDS011;54393;53.556;49.216;2023-05-07T07:17:50;0.90;;;0.80;;
67564;SDS011;54393;53.556;49.216;2023-05-07T07:20:17;0.73;;;0.73;;
67564;SDS011;54393;53.556;49.216;2023-05-07T07:22:43;2.28;;;0.90;;
67564;SDS011;54393;53.556;49.216;2023-05-07T07:25:11;0.85;;;0.85;;
67564;SDS011;54393;53.556;49.216;2023-05-07T07:27:37;1.02;;;0.60;;
67564;SDS011;54393;53.556;49.216;2023-05-07T07:30:05;1.00;;;1.00;;
67564;SDS011;54393;53.556;49.216;2023-05-07T07:32:33;0.50;;;0.50;;
67564;SDS011;54393;53.556;49.216;2023-05-07T07:34:59;1.17;;;1.10;;
67564;SDS011;54393;53.556;49.216;2023-05-07T07:37:26;0.70;;;0.70;;
67564;SDS011;54393;53.556;49.216;2023-05-07T07:39:53;0.68;;;0.65;;
67564;SDS011;54393;53.556;49.216;2023-05-07T07:42:20;0.90;;;0.90;;
67564;SDS011;54393;53.556;49.216;2023-05-07T07:44:46;0.70;;;0.70;;
67564;SDS011;54393;53.556;49.216;2023-05-07T07:47:13;1.02;;;0.80;;
67564;SDS011;54393;53.556;49.216;2023-05-07T07:49:40;0.98;;;0.98;;
67564;SDS011;54393;53.556;49.216;2023-05-07T07:52:06;0.70;;;0.70;;
67564;SDS011;54393;53.556;49.216;2023-05-07T07:54:33;0.60;;;0.60;;
67564;SDS011;54393;53.556;49.216;2023-05-07T07:56:59;0.98;;;0.80;;
67564;SDS011;54393;53.556;49.216;2023-05-07T07:59:26;0.70;;;0.70;;
67564;SDS011;54393;53.556;49.216;2023-05-07T08:01:53;0.73;;;0.73;;
67564;SDS011;54393;53.556;49.216;2023-05-07T08:04:22;0.80;;;0.80;;
67564;SDS011;54393;53.556;49.216;2023-05-07T08:06:48;0.80;;;0.80;;
67564;SDS011;54393;53.556;49.216;2023-05-07T08:09:15;0.77;;;0.77;;
67564;SDS011;54393;53.556;49.216;2023-05-07T08:11:41;0.60;;;0.52;;
67564;SDS011;54393;53.556;49.216;2023-05-07T08:14:08;0.75;;;0.70;;
67564;SDS011;54393;53.556;49.216;2023-05-07T08:16:34;0.70;;;0.70;;
67564;SDS011;54393;53.556;49.216;2023-05-07T08:19:01;0.70;;;0.70;;
67564;SDS011;54393;53.556;49.216;2023-05-07T08:21:27;0.60;;;0.60;;
67564;SDS011;54393;53.556;49.216;2023-05-07T08:23:54;0.60;;;0.60;;
67564;SDS011;54393;53.556;49.216;2023-05-07T08:26:20;0.70;;;0.70;;
67564;SDS011;54393;53.556;49.216;2023-05-07T08:28:47;0.60;;;0.60;;
67564;SDS011;54393;53.556;49.216;2023-05-07T08:31:13;1.85;;;0.60;;
67564;SDS011;54393;53.556;49.216;2023-05-07T08:33:40;0.80;;;0.62;;
67564;SDS011;54393;53.556;49.216;2023-05-07T08:36:06;0.80;;;0.80;;
67564;SDS011;54393;53.556;49.216;2023-05-07T08:38:32;0.75;;;0.75;;
67564;SDS011;54393;53.556;49.216;2023-05-07T08:40:59;0.85;;;0.85;;
67564;SDS011;54393;53.556;49.216;2023-05-07T08:43:26;0.68;;;0.60;;
67564;SDS011;54393;53.556;49.216;2023-05-07T08:45:53;0.70;;;0.70;;
67564;SDS011;54393;53.556;49.216;2023-05-07T08:48:24;1.85;;;0.77;;
67564;SDS011;54393;53.556;49.216;2023-05-07T08:50:51;0.70;;;0.70;;
67564;SDS011;54393;53.556;49.216;2023-05-07T08:53:18;1.00;;;1.00;;
67564;SDS011;54393;53.556;49.216;2023-05-07T08:55:46;0.70;;;0.70;;
67564;SDS011;54393;53.556;49.216;2023-05-07T08:58:13;1.05;;;1.00;;
67564;SDS011;54393;53.556;49.216;2023-05-07T09:00:40;0.80;;;0.80;;
67564;SDS011;54393;53.556;49.216;2023-05-07T09:03:08;0.98;;;0.88;;
67564;SDS011;54393;53.556;49.216;2023-05-07T09:05:37;0.77;;;0.77;;
67564;SDS011;54393;53.556;49.216;2023-05-07T09:08:05;1.30;;;0.68;;
67564;SDS011;54393;53.556;49.216;2023-05-07T09:10:32;0.90;;;0.85;;
67564;SDS011;54393;53.556;49.216;2023-05-07T09:12:59;1.00;;;1.00;;
67564;SDS011;54393;53.556;49.216;2023-05-07T09:15:26;1.25;;;1.00;;
67564;SDS011;54393;53.556;49.216;2023-05-07T09:17:53;1.27;;;0.80;;
67564;SDS011;54393;53.556;49.216;2023-05-07T09:20:19;0.90;;;0.90;;
67564;SDS011;54393;53.556;49.216;2023-05-07T09:22:46;0.93;;;0.93;;
67564;SDS011;54393;53.556;49.216;2023-05-07T09:25:12;0.80;;;0.80;;
67564;SDS011;54393;53.556;49.216;2023-05-07T09:27:41;0.98;;;0.98;;
67564;SDS011;54393;53.556;49.216;2023-05-07T09:30:07;0.80;;;0.80;;
67564;SDS011;54393;53.556;49.216;2023-05-07T09:32:35;1.55;;;0.90;;
67564;SDS011;54393;53.556;49.216;2023-05-07T09:35:03;0.93;;;0.70;;
67564;SDS011;54393;53.556;49.216;2023-05-07T09:37:30;1.27;;;0.90;;
67564;SDS011;54393;53.556;49.216;2023-05-07T09:39:57;0.90;;;0.90;;
67564;SDS011;54393;53.556;49.216;2023-05-07T09:42:24;0.80;;;0.80;;
67564;SDS011;54393;53.556;49.216;2023-05-07T09:44:52;0.80;;;0.80;;
67564;SDS011;54393;53.556;49.216;2023-05-07T09:47:19;0.88;;;0.88;;
67564;SDS011;54393;53.556;49.216;2023-05-07T09:49:47;0.82;;;0.80;;
67564;SDS011;54393;53.556;49.216;2023-05-07T09:52:14;0.95;;;0.95;;
67564;SDS011;54393;53.556;49.216;2023-05-07T09:54:40;1.48;;;1.10;;
67564;SDS011;54393;53.556;49.216;2023-05-07T09:57:11;0.80;;;0.80;;
67564;SDS011;54393;53.556;49.216;2023-05-07T09:59:38;1.35;;;1.00;;
67564;SDS011;54393;53.556;49.216;2023-05-07T10:02:04;0.98;;;0.90;;
67564;SDS011;54393;53.556;49.216;2023-05-07T10:04:31;0.95;;;0.95;;
67564;SDS011;54393;53.556;49.216;2023-05-07T10:06:58;0.73;;;0.73;;
67564;SDS011;54393;53.556;49.216;2023-05-07T10:09:26;0.98;;;0.80;;
67564;SDS011;54393;53.556;49.216;2023-05-07T10:11:52;1.00;;;1.00;;
67564;SDS011;54393;53.556;49.216;2023-05-07T10:14:20;1.17;;;1.02;;
67564;SDS011;54393;53.556;49.216;2023-05-07T10:16:47;1.95;;;0.80;;
67564;SDS011;54393;53.556;49.216;2023-05-07T10:19:14;2.15;;;1.10;;
67564;SDS011;54393;53.556;49.216;2023-05-07T10:21:44;1.00;;;1.00;;
67564;SDS011;54393;53.556;49.216;2023-05-07T10:24:19;1.30;;;1.17;;
67564;SDS011;54393;53.556;49.216;2023-05-07T10:26:54;1.12;;;1.02;;
67564;SDS011;54393;53.556;49.216;2023-05-07T10:29:28;1.33;;;1.23;;
67564;SDS011;54393;53.556;49.216;2023-05-07T10:34:56;2.00;;;0.90;;
67564;SDS011;54393;53.556;49.216;2023-05-07T10:37:25;1.15;;;1.05;;
67564;SDS011;54393;53.556;49.216;2023-05-07T10:39:52;1.00;;;1.00;;
67564;SDS011;54393;53.556;49.216;2023-05-07T10:42:19;2.20;;;1.50;;
67564;SDS011;54393;53.556;49.216;2023-05-07T10:44:45;0.90;;;0.90;;
67564;SDS011;54393;53.556;49.216;2023-05-07T10:47:13;1.10;;;1.00;;
67564;SDS011;54393;53.556;49.216;2023-05-07T10:52:11;1.48;;;0.88;;
67564;SDS011;54393;53.556;49.216;2023-05-07T10:54:41;1.83;;;1.20;;
67564;SDS011;54393;53.556;49.216;2023-05-07T11:00:00;2.42;;;1.10;;
67564;SDS011;54393;53.556;49.216;2023-05-07T11:05:26;1.23;;;1.10;;
67564;SDS011;54393;53.556;49.216;2023-05-07T11:07:57;1.90;;;1.35;;
67564;SDS011;54393;53.556;49.216;2023-05-07T11:14:04;2.55;;;1.12;;
67564;SDS011;54393;53.556;49.216;2023-05-07T11:16:20;1.23;;;1.08;;
67564;SDS011;54393;53.556;49.216;2023-05-07T11:18:55;1.33;;;1.17;;
67564;SDS011;54393;53.556;49.216;2023-05-07T11:21:31;1.70;;;1.08;;
67564;SDS011;54393;53.556;49.216;2023-05-07T11:24:02;1.33;;;1.23;;
67564;SDS011;54393;53.556;49.216;2023-05-07T11:26:31;2.47;;;1.67;;
67564;SDS011;54393;53.556;49.216;2023-05-07T11:29:13;1.35;;;1.12;;
67564;SDS011;54393;53.556;49.216;2023-05-07T11:31:40;1.37;;;1.27;;
67564;SDS011;54393;53.556;49.216;2023-05-07T11:34:07;2.37;;;1.40;;
67564;SDS011;54393;53.556;49.216;2023-05-07T11:36:34;1.35;;;1.17;;
67564;SDS011;54393;53.556;49.216;2023-05-07T11:39:22;2.05;;;1.20;;
67564;SDS011;54393;53.556;49.216;2023-05-07T11:41:52;2.17;;;1.45;;
67564;SDS011;54393;53.556;49.216;2023-05-07T11:44:19;2.00;;;1.08;;
67564;SDS011;54393;53.556;49.216;2023-05-07T11:46:46;2.70;;;1.30;;
67564;SDS011;54393;53.556;49.216;2023-05-07T11:49:12;1.15;;;1.08;;
67564;SDS011;54393;53.556;49.216;2023-05-07T11:51:39;1.62;;;1.33;;
67564;SDS011;54393;53.556;49.216;2023-05-07T11:54:07;1.35;;;1.00;;
67564;SDS011;54393;53.556;49.216;2023-05-07T11:56:36;1.77;;;1.10;;
67564;SDS011;54393;53.556;49.216;2023-05-07T11:59:04;1.20;;;1.10;;
67564;SDS011;54393;53.556;49.216;2023-05-07T12:01:31;2.80;;;1.27;;
67564;SDS011;54393;53.556;49.216;2023-05-07T12:04:00;1.60;;;1.10;;
67564;SDS011;54393;53.556;49.216;2023-05-07T12:06:30;1.60;;;1.08;;
67564;SDS011;54393;53.556;49.216;2023-05-07T12:08:56;2.03;;;1.40;;
67564;SDS011;54393;53.556;49.216;2023-05-07T12:11:23;0.90;;;0.90;;
67564;SDS011;54393;53.556;49.216;2023-05-07T12:13:50;1.50;;;1.15;;
67564;SDS011;54393;53.556;49.216;2023-05-07T12:16:19;1.83;;;1.37;;
67564;SDS011;54393;53.556;49.216;2023-05-07T12:18:45;1.23;;;1.12;;
67564;SDS011;54393;53.556;49.216;2023-05-07T12:21:12;1.37;;;1.17;;
67564;SDS011;54393;53.556;49.216;2023-05-07T12:23:39;1.42;;;1.02;;
67564;SDS011;54393;53.556;49.216;2023-05-07T12:26:06;1.20;;;1.10;;
67564;SDS011;54393;53.556;49.216;2023-05-07T12:28:35;1.10;;;0.90;;
67564;SDS011;54393;53.556;49.216;2023-05-07T12:31:03;1.65;;;1.10;;
67564;SDS011;54393;53.556;49.216;2023-05-07T12:33:31;1.37;;;1.00;;
67564;SDS011;54393;53.556;49.216;2023-05-07T12:35:58;2.42;;;1.27;;
67564;SDS011;54393;53.556;49.216;2023-05-07T12:38:32;2.80;;;1.37;;
67564;SDS011;54393;53.556;49.216;2023-05-07T12:41:03;1.33;;;1.10;;
67564;SDS011;54393;53.556;49.216;2023-05-07T12:43:32;1.17;;;1.08;;
67564;SDS011;54393;53.556;49.216;2023-05-07T12:46:08;0.93;;;0.93;;
67564;SDS011;54393;53.556;49.216;2023-05-07T12:48:38;1.83;;;1.17;;
67564;SDS011;54393;53.556;49.216;2023-05-07T12:51:08;1.30;;;1.20;;
67564;SDS011;54393;53.556;49.216;2023-05-07T12:53:40;1.10;;;1.00;;
67564;SDS011;54393;53.556;49.216;2023-05-07T12:56:10;0.70;;;0.65;;
67564;SDS011;54393;53.556;49.216;2023-05-07T12:58:36;1.30;;;0.82;;
67564;SDS011;54393;53.556;49.216;2023-05-07T13:01:06;1.20;;;1.10;;
67564;SDS011;54393;53.556;49.216;2023-05-07T13:03:35;1.12;;;1.02;;
67564;SDS011;54393;53.556;49.216;2023-05-07T13:08:36;1.62;;;1.17;;
67564;SDS011;54393;53.556;49.216;2023-05-07T13:11:07;1.17;;;1.02;;
67564;SDS011;54393;53.556;49.216;2023-05-07T13:13:34;1.48;;;1.00;;
67564;SDS011;54393;53.556;49.216;2023-05-07T13:16:02;0.93;;;0.90;;
67564;SDS011;54393;53.556;49.216;2023-05-07T13:18:30;1.30;;;1.20;;
67564;SDS011;54393;53.556;49.216;2023-05-07T13:20:57;0.80;;;0.80;;
67564;SDS011;54393;53.556;49.216;2023-05-07T13:23:23;1.20;;;1.10;;
67564;SDS011;54393;53.556;49.216;2023-05-07T13:25:50;0.85;;;0.77;;
67564;SDS011;54393;53.556;49.216;2023-05-07T13:28:19;2.85;;;1.00;;
67564;SDS011;54393;53.556;49.216;2023-05-07T13:30:46;1.37;;;0.90;;
67564;SDS011;54393;53.556;49.216;2023-05-07T13:33:12;1.27;;;1.17;;
67564;SDS011;54393;53.556;49.216;2023-05-07T13:35:39;1.12;;;1.00;;
67564;SDS011;54393;53.556;49.216;2023-05-07T13:38:05;1.33;;;1.00;;
67564;SDS011;54393;53.556;49.216;2023-05-07T13:40:32;1.30;;;0.75;;
67564;SDS011;54393;53.556;49.216;2023-05-07T13:42:58;0.82;;;0.82;;
67564;SDS011;54393;53.556;49.216;2023-05-07T13:45:27;1.05;;;0.70;;
67564;SDS011;54393;53.556;49.216;2023-05-07T13:47:57;1.20;;;1.10;;
67564;SDS011;54393;53.556;49.216;2023-05-07T13:50:23;1.40;;;0.80;;
67564;SDS011;54393;53.556;49.216;2023-05-07T13:52:52;1.20;;;1.10;;
67564;SDS011;54393;53.556;49.216;2023-05-07T13:55:18;0.93;;;0.93;;
67564;SDS011;54393;53.556;49.216;2023-05-07T13:57:46;1.10;;;0.93;;
67564;SDS011;54393;53.556;49.216;2023-05-07T14:00:13;0.70;;;0.70;;
67564;SDS011;54393;53.556;49.216;2023-05-07T14:02:41;0.80;;;0.80;;
67564;SDS011;54393;53.556;49.216;2023-05-07T14:05:08;1.10;;;0.98;;
67564;SDS011;54393;53.556;49.216;2023-05-07T14:07:35;0.90;;;0.85;;
67564;SDS011;54393;53.556;49.216;2023-05-07T14:10:02;0.70;;;0.70;;
67564;SDS011;54393;53.556;49.216;2023-05-07T14:12:29;2.15;;;0.90;;
67564;SDS011;54393;53.556;49.216;2023-05-07T14:14:56;2.65;;;1.08;;
67564;SDS011;54393;53.556;49.216;2023-05-07T14:17:22;1.00;;;0.90;;
67564;SDS011;54393;53.556;49.216;2023-05-07T14:19:51;1.95;;;0.90;;
67564;SDS011;54393;53.556;49.216;2023-05-07T14:22:21;1.20;;;1.00;;
67564;SDS011;54393;53.556;49.216;2023-05-07T14:24:48;0.90;;;0.90;;
67564;SDS011;54393;53.556;49.216;2023-05-07T14:27:14;0.88;;;0.80;;
67564;SDS011;54393;53.556;49.216;2023-05-07T14:29:41;0.90;;;0.90;;
67564;SDS011;54393;53.556;49.216;2023-05-07T14:32:08;2.10;;;0.70;;
67564;SDS011;54393;53.556;49.216;2023-05-07T14:34:34;0.77;;;0.77;;
67564;SDS011;54393;53.556;49.216;2023-05-07T14:37:01;0.80;;;0.80;;
67564;SDS011;54393;53.556;49.216;2023-05-07T14:39:28;1.12;;;0.80;;
67564;SDS011;54393;53.556;49.216;2023-05-07T14:41:55;1.02;;;0.85;;
67564;SDS011;54393;53.556;49.216;2023-05-07T14:44:22;0.90;;;0.80;;
67564;SDS011;54393;53.556;49.216;2023-05-07T14:46:48;0.62;;;0.62;;
67564;SDS011;54393;53.556;49.216;2023-05-07T14:49:15;0.90;;;0.90;;
67564;SDS011;54393;53.556;49.216;2023-05-07T14:51:44;0.65;;;0.65;;
67564;SDS011;54393;53.556;49.216;2023-05-07T14:54:12;0.93;;;0.93;;